createdAt,value
2023-05-07T00:01:27.564Z,99.90
2023-05-07T00:03:57.444Z,99.90
2023-05-07T00:06:27.513Z,99.90
2023-05-07T00:08:55.635Z,99.90
2023-05-07T00:11:27.787Z,99.90
2023-05-07T00:13:56.087Z,99.90
2023-05-07T00:16:25.291Z,99.90
2023-05-07T00:18:55.076Z,99.90
2023-05-07T00:21:27.478Z,99.90
2023-05-07T00:23:56.097Z,99.90
2023-05-07T00:26:24.395Z,99.90
2023-05-07T00:28:53.368Z,99.90
2023-05-07T00:31:21.735Z,99.90
2023-05-07T00:33:49.975Z,99.90
2023-05-07T00:36:31.913Z,99.90
2023-05-07T00:39:04.611Z,99.90
2023-05-07T00:41:32.741Z,99.90
2023-05-07T00:44:01.665Z,99.90
2023-05-07T00:46:31.477Z,99.90
2023-05-07T00:49:18.635Z,99.90
2023-05-07T00:51:47.358Z,99.90
2023-05-07T00:54:17.139Z,99.90
2023-05-07T00:56:45.910Z,99.90
2023-05-07T00:59:14.037Z,99.90
2023-05-07T01:01:42.827Z,99.90
2023-05-07T01:04:11.005Z,99.90
2023-05-07T01:06:40.214Z,99.90
2023-05-07T01:09:10.412Z,99.90
2023-05-07T01:11:40.212Z,99.90
2023-05-07T01:14:09.394Z,99.90
2023-05-07T01:16:38.119Z,99.90
2023-05-07T01:19:07.074Z,99.90
2023-05-07T01:21:36.114Z,99.90
2023-05-07T01:24:08.350Z,99.90
2023-05-07T01:26:36.771Z,99.90
2023-05-07T01:29:04.815Z,99.90
2023-05-07T01:31:34.189Z,99.90
2023-05-07T01:34:04.115Z,99.90
2023-05-07T01:36:33.198Z,99.90
2023-05-07T01:39:01.712Z,99.90
2023-05-07T01:41:31.383Z,99.90
2023-05-07T01:44:01.193Z,99.90
2023-05-07T01:46:29.744Z,99.90
2023-05-07T01:48:57.830Z,99.90
2023-05-07T01:51:26.377Z,99.90
2023-05-07T01:53:55.151Z,99.90
2023-05-07T01:56:23.494Z,99.90
2023-05-07T01:58:53.922Z,99.90
2023-05-07T02:01:22.408Z,99.90
2023-05-07T02:03:51.455Z,99.90
2023-05-07T02:06:25.186Z,99.90
2023-05-07T02:08:57.940Z,99.90
2023-05-07T02:11:26.328Z,99.90
2023-05-07T02:13:55.764Z,99.90
2023-05-07T02:16:24.996Z,99.90
2023-05-07T02:18:54.005Z,99.90
2023-05-07T02:21:22.461Z,99.90
2023-05-07T02:23:50.637Z,99.90
2023-05-07T02:26:19.137Z,99.90
2023-05-07T02:28:47.594Z,99.90
2023-05-07T02:31:17.575Z,99.90
2023-05-07T02:33:46.630Z,99.90
2023-05-07T02:36:15.837Z,99.90
2023-05-07T02:38:53.368Z,99.90
2023-05-07T02:41:22.187Z,99.90
2023-05-07T02:43:50.338Z,99.90
2023-05-07T02:46:20.610Z,99.90
2023-05-07T02:48:54.300Z,99.90
2023-05-07T02:51:26.048Z,99.90
2023-05-07T02:53:56.537Z,99.90
2023-05-07T02:56:25.292Z,99.90
2023-05-07T02:58:53.372Z,99.90
2023-05-07T03:01:24.964Z,99.90
2023-05-07T03:04:01.998Z,99.90
2023-05-07T03:06:30.291Z,99.90
2023-05-07T03:08:58.427Z,99.90
2023-05-07T03:11:27.254Z,99.90
2023-05-07T03:13:55.603Z,99.90
2023-05-07T03:16:25.791Z,99.90
2023-05-07T03:18:54.473Z,99.90
2023-05-07T03:21:23.181Z,99.90
2023-05-07T03:23:51.332Z,99.90
2023-05-07T03:26:19.709Z,99.90
2023-05-07T03:28:48.243Z,99.90
2023-05-07T03:31:18.880Z,99.90
2023-05-07T03:33:56.984Z,99.90
2023-05-07T03:36:27.675Z,99.90
2023-05-07T03:38:57.238Z,99.90
2023-05-07T03:41:28.277Z,99.90
2023-05-07T03:43:56.537Z,99.90
2023-05-07T03:46:27.540Z,99.90
2023-05-07T03:48:57.700Z,99.90
2023-05-07T03:51:26.364Z,99.90
2023-05-07T03:53:54.895Z,99.90
2023-05-07T03:56:27.388Z,99.90
2023-05-07T03:58:56.743Z,99.90
2023-05-07T04:01:24.868Z,99.90
2023-05-07T04:03:53.185Z,99.90
2023-05-07T04:06:23.395Z,99.90
2023-05-07T04:08:51.776Z,99.90
2023-05-07T04:11:19.850Z,99.90
2023-05-07T04:13:48.347Z,99.90
2023-05-07T04:16:19.240Z,99.90
2023-05-07T04:18:47.432Z,99.90
2023-05-07T04:21:19.532Z,99.90
2023-05-07T04:23:50.587Z,99.90
2023-05-07T04:26:18.667Z,99.90
2023-05-07T04:28:47.730Z,99.90
2023-05-07T04:31:18.187Z,99.90
2023-05-07T04:33:50.323Z,99.90
2023-05-07T04:36:18.875Z,99.90
2023-05-07T04:38:56.405Z,99.90
2023-05-07T04:41:24.548Z,99.90
2023-05-07T04:43:52.699Z,99.90
2023-05-07T04:46:24.991Z,99.90
2023-05-07T04:48:53.970Z,99.90
2023-05-07T04:51:22.041Z,99.90
2023-05-07T04:53:51.697Z,99.90
2023-05-07T04:56:21.319Z,99.90
2023-05-07T04:58:49.554Z,99.90
2023-05-07T05:01:21.206Z,99.90
2023-05-07T05:03:49.828Z,99.90
2023-05-07T05:06:19.398Z,99.90
2023-05-07T05:08:47.665Z,99.90
2023-05-07T05:11:15.905Z,99.90
2023-05-07T05:13:45.823Z,99.90
2023-05-07T05:16:19.030Z,99.90
2023-05-07T05:18:47.267Z,99.90
2023-05-07T05:21:18.101Z,99.90
2023-05-07T05:23:49.133Z,99.90
2023-05-07T05:26:22.172Z,99.90
2023-05-07T05:28:52.342Z,99.90
2023-05-07T05:31:23.181Z,99.90
2023-05-07T05:33:52.858Z,99.90
2023-05-07T05:36:20.953Z,99.90
2023-05-07T05:38:50.823Z,99.90
2023-05-07T05:41:19.639Z,99.90
2023-05-07T05:43:47.823Z,99.90
2023-05-07T05:46:17.501Z,99.90
2023-05-07T05:48:46.013Z,99.90
2023-05-07T05:51:14.134Z,99.90
2023-05-07T05:53:42.840Z,99.90
2023-05-07T05:56:11.356Z,99.90
2023-05-07T05:58:42.200Z,99.90
2023-05-07T06:01:12.585Z,99.90
2023-05-07T06:03:41.973Z,99.90
2023-05-07T06:06:16.402Z,99.90
2023-05-07T06:08:45.522Z,99.90
2023-05-07T06:11:17.512Z,99.90
2023-05-07T06:13:47.881Z,99.90
2023-05-07T06:16:16.756Z,99.90
2023-05-07T06:18:47.806Z,99.90
2023-05-07T06:21:17.719Z,99.90
2023-05-07T06:26:32.981Z,99.90
2023-05-07T06:29:01.071Z,99.90
2023-05-07T06:31:34.020Z,99.90
2023-05-07T06:34:07.189Z,99.90
2023-05-07T06:36:38.934Z,99.90
2023-05-07T06:39:15.499Z,99.90
2023-05-07T06:41:43.789Z,99.90
2023-05-07T06:44:22.955Z,99.90
2023-05-07T06:47:01.293Z,99.90
2023-05-07T06:49:30.908Z,99.90
2023-05-07T06:51:59.048Z,99.90
2023-05-07T06:54:27.340Z,99.90
2023-05-07T06:56:55.573Z,99.90
2023-05-07T06:59:26.301Z,99.90
2023-05-07T07:04:43.060Z,99.90
2023-05-07T07:07:12.704Z,99.90
2023-05-07T07:09:42.682Z,99.90
2023-05-07T07:12:11.762Z,99.90
2023-05-07T07:14:41.849Z,99.90
2023-05-07T07:17:10.284Z,99.90
2023-05-07T07:19:39.630Z,99.90
2023-05-07T07:22:09.055Z,99.90
2023-05-07T07:24:37.524Z,99.90
2023-05-07T07:27:08.346Z,99.90
2023-05-07T07:29:36.905Z,99.90
2023-05-07T07:32:05.829Z,99.90
2023-05-07T07:34:34.583Z,99.90
2023-05-07T07:37:06.544Z,99.90
2023-05-07T07:39:38.714Z,99.90
2023-05-07T07:42:08.302Z,99.90
2023-05-07T07:44:36.499Z,99.90
2023-05-07T07:47:09.118Z,99.90
2023-05-07T07:49:37.456Z,99.90
2023-05-07T07:52:07.947Z,99.90
2023-05-07T07:54:39.711Z,99.90
2023-05-07T07:57:09.278Z,99.90
2023-05-07T07:59:38.026Z,99.90
2023-05-07T08:02:07.626Z,99.90
2023-05-07T08:04:38.110Z,99.90
2023-05-07T08:07:08.552Z,99.90
2023-05-07T08:09:41.889Z,99.90
2023-05-07T08:12:11.144Z,99.90
2023-05-07T08:14:40.489Z,99.90
2023-05-07T08:17:10.739Z,99.90
2023-05-07T08:19:39.496Z,99.90
2023-05-07T08:22:10.188Z,99.70
2023-05-07T08:24:38.337Z,99.40
2023-05-07T08:27:08.090Z,99.70
2023-05-07T08:29:36.616Z,99.80
2023-05-07T08:32:05.037Z,99.80
2023-05-07T08:34:33.293Z,99.00
2023-05-07T08:37:04.599Z,98.70
2023-05-07T08:39:33.939Z,98.20
2023-05-07T08:42:05.626Z,98.00
2023-05-07T08:44:37.104Z,98.90
2023-05-07T08:47:08.181Z,98.90
2023-05-07T08:49:37.696Z,99.00
2023-05-07T08:52:09.730Z,98.30
2023-05-07T08:54:39.917Z,98.10
2023-05-07T08:57:10.918Z,97.50
2023-05-07T08:59:40.809Z,97.20
2023-05-07T09:02:11.580Z,97.30
2023-05-07T09:04:40.669Z,97.90
2023-05-07T09:07:09.531Z,97.50
2023-05-07T09:09:42.454Z,97.30
2023-05-07T09:12:10.815Z,98.00
2023-05-07T09:14:40.582Z,98.00
2023-05-07T09:17:08.848Z,98.00
2023-05-07T09:19:37.048Z,97.70
2023-05-07T09:22:09.132Z,97.40
2023-05-07T09:24:53.618Z,97.30
2023-05-07T09:27:25.357Z,96.80
2023-05-07T09:29:54.936Z,96.70
2023-05-07T09:32:23.043Z,96.50
2023-05-07T09:34:51.269Z,96.40
2023-05-07T09:37:23.996Z,96.30
2023-05-07T09:39:52.727Z,96.30
2023-05-07T09:42:26.480Z,95.60
2023-05-07T09:44:57.579Z,94.00
2023-05-07T09:47:34.393Z,93.90
2023-05-07T09:50:07.714Z,92.90
2023-05-07T09:52:36.637Z,92.00
2023-05-07T09:55:08.338Z,91.30
2023-05-07T09:57:38.063Z,91.30
2023-05-07T10:00:13.026Z,90.50
2023-05-07T10:02:52.928Z,90.10
2023-05-07T10:05:28.391Z,89.00
2023-05-07T10:07:59.607Z,90.40
2023-05-07T10:10:29.825Z,86.40
2023-05-07T10:12:58.055Z,87.50
2023-05-07T10:15:34.677Z,87.10
2023-05-07T10:18:05.601Z,87.80
2023-05-07T10:20:35.337Z,87.60
2023-05-07T10:23:07.195Z,87.40
2023-05-07T10:25:42.629Z,87.50
2023-05-07T10:28:21.669Z,86.10
2023-05-07T10:31:03.246Z,86.10
2023-05-07T10:33:39.586Z,85.80
2023-05-07T10:36:08.931Z,85.50
2023-05-07T10:38:37.140Z,84.70
2023-05-07T10:41:06.683Z,85.60
2023-05-07T10:43:43.778Z,84.20
2023-05-07T10:46:19.415Z,84.30
2023-05-07T10:49:11.905Z,82.30
2023-05-07T10:52:31.355Z,80.30
2023-05-07T10:55:23.318Z,77.10
2023-05-07T10:58:32.091Z,77.20
2023-05-07T11:01:12.212Z,78.80
2023-05-07T11:04:16.256Z,76.60
2023-05-07T11:07:30.276Z,74.40
2023-05-07T11:10:08.695Z,74.20
2023-05-07T11:12:57.451Z,71.20
2023-05-07T11:15:44.360Z,69.80
2023-05-07T11:18:24.835Z,63.40
2023-05-07T11:20:58.341Z,58.70
2023-05-07T11:24:01.918Z,56.50
2023-05-07T11:26:48.791Z,54.20
2023-05-07T11:29:21.778Z,52.50
2023-05-07T11:31:53.929Z,50.10
2023-05-07T11:34:25.149Z,48.20
2023-05-07T11:36:56.008Z,46.40
2023-05-07T11:39:36.895Z,47.20
2023-05-07T11:42:05.272Z,46.20
2023-05-07T11:44:47.288Z,46.30
2023-05-07T11:47:19.942Z,47.40
2023-05-07T11:49:49.753Z,46.80
2023-05-07T11:52:19.621Z,47.80
2023-05-07T11:54:51.474Z,48.20
2023-05-07T11:57:19.619Z,48.60
2023-05-07T11:59:48.544Z,49.10
2023-05-07T12:02:17.336Z,49.60
2023-05-07T12:04:46.084Z,49.60
2023-05-07T12:07:14.816Z,51.10
2023-05-07T12:09:44.856Z,51.70
2023-05-07T12:12:13.518Z,52.40
2023-05-07T12:14:42.597Z,53.70
2023-05-07T12:17:11.533Z,54.50
2023-05-07T12:19:42.048Z,55.30
2023-05-07T12:22:11.155Z,55.20
2023-05-07T12:24:48.399Z,55.30
2023-05-07T12:27:17.142Z,55.30
2023-05-07T12:29:47.261Z,55.40
2023-05-07T12:32:16.945Z,55.60
2023-05-07T12:34:45.720Z,55.40
2023-05-07T12:37:14.766Z,56.10
2023-05-07T12:39:50.408Z,55.60
2023-05-07T12:42:24.488Z,56.20
2023-05-07T12:44:53.486Z,56.50
2023-05-07T12:47:22.582Z,57.60
2023-05-07T12:49:51.081Z,58.70
2023-05-07T12:52:19.301Z,57.90
2023-05-07T12:54:50.332Z,58.10
2023-05-07T12:57:21.911Z,57.80
2023-05-07T12:59:49.925Z,57.50
2023-05-07T13:02:17.953Z,57.60
2023-05-07T13:04:46.470Z,58.20
2023-05-07T13:07:14.492Z,57.60
2023-05-07T13:09:43.290Z,58.00
2023-05-07T13:12:13.041Z,57.50
2023-05-07T13:14:41.108Z,57.90
2023-05-07T13:17:09.126Z,56.80
2023-05-07T13:19:38.477Z,55.90
2023-05-07T13:22:07.769Z,56.50
2023-05-07T13:24:36.054Z,55.90
2023-05-07T13:27:04.184Z,53.40
2023-05-07T13:29:52.672Z,51.00
2023-05-07T13:32:21.023Z,48.80
2023-05-07T13:34:49.357Z,48.30
2023-05-07T13:37:17.537Z,43.50
2023-05-07T13:39:45.633Z,38.00
2023-05-07T13:42:13.812Z,35.80
2023-05-07T13:44:41.933Z,34.30
2023-05-07T13:47:11.538Z,31.80
2023-05-07T13:49:39.720Z,31.20
2023-05-07T13:52:07.892Z,29.70
2023-05-07T13:54:35.877Z,30.10
2023-05-07T13:57:04.277Z,29.90
2023-05-07T13:59:32.302Z,29.40
2023-05-07T14:02:00.332Z,28.70
2023-05-07T14:04:30.040Z,27.90
2023-05-07T14:06:58.092Z,28.10
2023-05-07T14:09:26.210Z,28.00
2023-05-07T14:11:54.590Z,28.50
2023-05-07T14:14:22.613Z,29.10
2023-05-07T14:16:51.187Z,29.70
2023-05-07T14:19:19.864Z,30.50
2023-05-07T14:21:49.219Z,31.50
2023-05-07T14:24:24.415Z,33.20
2023-05-07T14:27:03.060Z,34.30
2023-05-07T14:29:31.134Z,35.40
2023-05-07T14:31:59.166Z,37.20
2023-05-07T14:34:27.341Z,39.00
2023-05-07T14:36:57.380Z,40.50
2023-05-07T14:39:26.422Z,41.10
2023-05-07T14:41:55.825Z,42.90
2023-05-07T14:44:23.927Z,45.00
2023-05-07T14:46:52.679Z,46.70
2023-05-07T14:49:21.054Z,47.70
2023-05-07T14:51:49.760Z,48.80
2023-05-07T14:54:19.305Z,50.50
2023-05-07T14:56:47.780Z,50.80
2023-05-07T14:59:16.940Z,51.30
2023-05-07T15:01:46.420Z,52.30
2023-05-07T15:04:15.047Z,53.90
2023-05-07T15:06:44.256Z,54.80
2023-05-07T15:09:12.240Z,55.20
2023-05-07T15:11:41.808Z,56.00
2023-05-07T15:14:09.851Z,56.70
2023-05-07T15:16:37.942Z,56.70
2023-05-07T15:19:06.328Z,57.50
2023-05-07T15:21:35.785Z,59.10
2023-05-07T15:24:03.887Z,59.90
2023-05-07T15:26:32.187Z,59.70
2023-05-07T15:29:04.152Z,59.80
2023-05-07T15:31:32.266Z,60.30
2023-05-07T15:34:01.978Z,59.60
2023-05-07T15:36:31.012Z,59.20
2023-05-07T15:38:59.150Z,59.40
2023-05-07T15:41:27.175Z,58.70
2023-05-07T15:43:55.574Z,58.40
2023-05-07T15:46:26.451Z,58.20
2023-05-07T15:48:56.766Z,57.90
2023-05-07T15:51:24.976Z,57.40
2023-05-07T15:53:53.862Z,57.70
2023-05-07T15:56:22.042Z,58.00
2023-05-07T15:58:50.395Z,58.20
2023-05-07T16:01:18.495Z,58.90
2023-05-07T16:03:48.168Z,59.00
2023-05-07T16:06:16.434Z,59.30
2023-05-07T16:08:44.935Z,59.90
2023-05-07T16:11:13.060Z,60.00
2023-05-07T16:13:41.119Z,60.30
2023-05-07T16:16:09.161Z,60.90
2023-05-07T16:18:37.342Z,61.50
2023-05-07T16:21:07.981Z,61.80
2023-05-07T16:23:36.371Z,62.80
2023-05-07T16:26:05.064Z,63.20
2023-05-07T16:28:33.177Z,64.10
2023-05-07T16:31:01.239Z,63.80
2023-05-07T16:33:29.450Z,64.20
2023-05-07T16:35:57.519Z,64.80
2023-05-07T16:38:26.982Z,66.00
2023-05-07T16:40:55.162Z,65.90
2023-05-07T16:43:23.330Z,66.70
2023-05-07T16:45:52.421Z,68.00
2023-05-07T16:48:21.248Z,67.80
2023-05-07T16:50:49.796Z,69.20
2023-05-07T16:53:17.838Z,70.20
2023-05-07T16:55:47.622Z,71.60
2023-05-07T16:58:16.333Z,72.20
2023-05-07T17:00:50.458Z,72.40
2023-05-07T17:03:19.908Z,72.60
2023-05-07T17:05:48.119Z,74.30
2023-05-07T17:08:16.626Z,75.00
2023-05-07T17:10:46.143Z,75.10
2023-05-07T17:13:15.623Z,74.50
2023-05-07T17:15:46.566Z,74.20
2023-05-07T17:18:14.830Z,74.70
2023-05-07T17:20:42.917Z,75.30
2023-05-07T17:23:10.992Z,75.50
2023-05-07T17:25:39.253Z,76.20
2023-05-07T17:28:07.306Z,77.10
2023-05-07T17:30:36.847Z,77.80
2023-05-07T17:33:19.496Z,77.30
2023-05-07T17:35:48.790Z,77.70
2023-05-07T17:38:16.819Z,78.40
2023-05-07T17:40:44.995Z,79.50
2023-05-07T17:43:13.059Z,79.30
2023-05-07T17:45:42.878Z,79.20
2023-05-07T17:48:11.005Z,79.70
2023-05-07T17:50:39.078Z,81.20
2023-05-07T17:53:09.664Z,81.10
2023-05-07T17:55:42.063Z,81.10
2023-05-07T17:58:10.350Z,82.10
2023-05-07T18:00:38.583Z,82.50
2023-05-07T18:03:08.416Z,82.80
2023-05-07T18:05:38.097Z,83.60
2023-05-07T18:08:07.298Z,84.10
2023-05-07T18:10:35.399Z,85.10
2023-05-07T18:13:03.436Z,85.60
2023-05-07T18:15:31.481Z,85.90
2023-05-07T18:18:00.165Z,86.40
2023-05-07T18:20:29.808Z,87.60
2023-05-07T18:22:58.075Z,87.70
2023-05-07T18:25:26.141Z,89.30
2023-05-07T18:27:54.261Z,89.50
2023-05-07T18:30:23.183Z,90.00
2023-05-07T18:32:51.536Z,90.90
2023-05-07T18:35:19.760Z,91.50
2023-05-07T18:37:49.381Z,91.80
2023-05-07T18:40:17.895Z,92.20
2023-05-07T18:42:45.909Z,92.70
2023-05-07T18:45:14.349Z,93.10
2023-05-07T18:47:42.416Z,93.50
2023-05-07T18:50:11.633Z,93.80
2023-05-07T18:52:40.255Z,94.00
2023-05-07T18:55:11.693Z,94.70
2023-05-07T18:57:39.702Z,94.80
2023-05-07T19:00:09.271Z,95.20
2023-05-07T19:02:37.534Z,95.50
2023-05-07T19:05:06.613Z,96.10
2023-05-07T19:07:35.014Z,96.40
2023-05-07T19:10:06.001Z,96.80
2023-05-07T19:12:36.098Z,97.30
2023-05-07T19:15:04.328Z,97.50
2023-05-07T19:17:32.403Z,97.70
2023-05-07T19:20:00.736Z,97.90
2023-05-07T19:22:28.925Z,98.10
2023-05-07T19:24:56.966Z,98.70
2023-05-07T19:27:25.136Z,99.00
2023-05-07T19:29:54.532Z,99.00
2023-05-07T19:32:22.606Z,99.20
2023-05-07T19:34:50.825Z,99.90
2023-05-07T19:37:22.832Z,99.90
2023-05-07T19:39:51.202Z,99.90
2023-05-07T19:42:19.414Z,99.90
2023-05-07T19:44:47.695Z,99.90
2023-05-07T19:47:17.644Z,99.90
2023-05-07T19:49:45.779Z,99.90
2023-05-07T19:52:13.841Z,99.90
2023-05-07T19:54:41.867Z,99.90
2023-05-07T19:57:10.480Z,99.90
2023-05-07T19:59:38.626Z,99.90
2023-05-07T20:02:07.135Z,99.90
2023-05-07T20:04:38.221Z,99.90
2023-05-07T20:07:06.539Z,99.90
2023-05-07T20:09:34.762Z,99.90
2023-05-07T20:12:02.924Z,99.90
2023-05-07T20:14:32.044Z,99.90
2023-05-07T20:17:00.230Z,99.90
2023-05-07T20:19:48.380Z,99.90
2023-05-07T20:22:16.624Z,99.90
2023-05-07T20:24:44.689Z,99.90
2023-05-07T20:27:13.281Z,99.90
2023-05-07T20:29:41.346Z,99.90
2023-05-07T20:32:09.496Z,99.90
2023-05-07T20:34:38.131Z,99.90
2023-05-07T20:37:11.740Z,99.90
2023-05-07T20:39:40.166Z,99.90
2023-05-07T20:42:08.201Z,99.90
2023-05-07T20:44:37.152Z,99.90
2023-05-07T20:47:05.393Z,99.90
2023-05-07T20:49:33.431Z,99.90
2023-05-07T20:52:01.992Z,99.90
2023-05-07T20:54:31.812Z,99.90
2023-05-07T20:57:00.456Z,99.90
2023-05-07T20:59:28.623Z,99.90
2023-05-07T21:01:56.751Z,99.90
2023-05-07T21:04:24.894Z,99.90
2023-05-07T21:06:53.301Z,99.90
2023-05-07T21:09:21.389Z,99.90
2023-05-07T21:11:50.902Z,99.90
2023-05-07T21:14:19.213Z,99.90
2023-05-07T21:16:48.097Z,99.90
2023-05-07T21:19:16.268Z,99.90
2023-05-07T21:21:44.538Z,99.90
2023-05-07T21:24:13.429Z,99.90
2023-05-07T21:26:41.861Z,99.90
2023-05-07T21:29:11.605Z,99.90
2023-05-07T21:31:39.646Z,99.90
2023-05-07T21:34:08.541Z,99.90
2023-05-07T21:36:36.861Z,99.90
2023-05-07T21:39:05.114Z,99.90
2023-05-07T21:41:33.162Z,99.90
2023-05-07T21:44:01.444Z,99.90
2023-05-07T21:46:30.999Z,99.90
2023-05-07T21:48:59.067Z,99.90
2023-05-07T21:51:27.191Z,99.90
2023-05-07T21:53:55.928Z,99.90
2023-05-07T21:56:24.374Z,99.90
2023-05-07T21:58:52.444Z,99.90
2023-05-07T22:01:20.524Z,99.90
2023-05-07T22:03:50.068Z,99.90
2023-05-07T22:06:21.973Z,99.90
2023-05-07T22:08:50.194Z,99.90
2023-05-07T22:11:18.278Z,99.90
2023-05-07T22:13:46.405Z,99.90
2023-05-07T22:16:14.640Z,99.90
2023-05-07T22:18:43.718Z,99.90
2023-05-07T22:21:13.149Z,99.90
2023-05-07T22:23:41.425Z,99.90
2023-05-07T22:26:13.195Z,99.90
2023-05-07T22:28:42.173Z,99.90
2023-05-07T22:31:10.398Z,99.90
2023-05-07T22:33:38.455Z,99.90
2023-05-07T22:36:08.018Z,99.90
2023-05-07T22:38:37.456Z,99.90
2023-05-07T22:41:05.535Z,99.90
2023-05-07T22:43:33.727Z,99.90
2023-05-07T22:46:02.539Z,99.90
2023-05-07T22:48:30.916Z,99.90
2023-05-07T22:50:59.425Z,99.90
2023-05-07T22:53:27.477Z,99.90
2023-05-07T22:55:57.164Z,99.90
2023-05-07T22:58:25.561Z,99.90
2023-05-07T23:00:53.717Z,99.90
2023-05-07T23:03:21.856Z,99.90
2023-05-07T23:05:50.527Z,99.90
2023-05-07T23:08:18.539Z,99.90
2023-05-07T23:10:47.074Z,99.90
2023-05-07T23:13:18.237Z,99.90
2023-05-07T23:15:46.257Z,99.90
2023-05-07T23:18:14.445Z,99.90
2023-05-07T23:20:48.398Z,99.90
2023-05-07T23:23:43.647Z,99.90
2023-05-07T23:26:11.773Z,99.90
2023-05-07T23:28:41.206Z,99.90
2023-05-07T23:31:09.386Z,99.90
2023-05-07T23:33:37.656Z,99.90
2023-05-07T23:36:07.361Z,99.90
2023-05-07T23:38:36.006Z,99.90
2023-05-07T23:41:04.060Z,99.90
2023-05-07T23:43:32.192Z,99.90
2023-05-07T23:46:02.535Z,99.90
2023-05-07T23:48:30.627Z,99.90
2023-05-07T23:50:58.627Z,99.90
2023-05-07T23:53:27.087Z,99.90
2023-05-07T23:55:55.099Z,99.90
2023-05-07T23:58:23.356Z,99.90
